Time;durP1;ratioP1;P1;durP2;ratioP2;P2;SDS_P1;SDS_P2;PMS_P1;PMS_P2;Temp;Humidity;BMP_temperature;BMP_pressure;BME280_temperature;BME280_humidity;BME280_pressure;Samples;Min_cycle;Max_cycle;Signal;HPM_P1;HPM_P2
2023/05/03 00:01:50;;;;;;;32.22;18.95;;;;;;;;;;10091601;23;20024;-89
2023/05/03 00:05:53;;;;;;;32.30;19.05;;;;;;;;;;10091625;23;20145;-91
2023/05/03 00:09:58;;;;;;;34.92;18.42;;;;;;;;;;10091966;23;20093;-90
2023/05/03 00:14:01;;;;;;;39.45;20.35;;;;;;;;;;10091327;23;20018;-89
2023/05/03 00:18:05;;;;;;;35.50;20.77;;;;;;;;;;10091221;23;20094;-88
2023/05/03 00:22:08;;;;;;;31.60;20.10;;;;;;;;;;10091003;23;20793;-89
2023/05/03 00:26:12;;;;;;;29.25;18.25;;;;;;;;;;10091083;23;20439;-89
2023/05/03 00:30:17;;;;;;;31.92;20.38;;;;;;;;;;10090882;23;20022;-89
2023/05/03 00:34:20;;;;;;;36.90;21.58;;;;;;;;;;10090896;23;20018;-88
2023/05/03 00:38:23;;;;;;;33.42;19.42;;;;;;;;;;10090769;23;20023;-89
2023/05/03 00:42:27;;;;;;;30.25;19.25;;;;;;;;;;10090216;23;20053;-90
2023/05/03 00:46:30;;;;;;;26.98;17.05;;;;;;;;;;10063956;23;20027;-89
2023/05/03 00:50:33;;;;;;;33.38;18.42;;;;;;;;;;10091984;23;20022;-88
2023/05/03 00:54:36;;;;;;;30.75;16.92;;;;;;;;;;10093341;23;20026;-90
2023/05/03 00:58:41;;;;;;;26.17;17.38;;;;;;;;;;10092224;23;20029;-89
2023/05/03 01:02:44;;;;;;;25.80;16.25;;;;;;;;;;10092850;23;20027;-89
2023/05/03 01:06:59;;;;;;;27.73;15.65;;;;;;;;;;10093325;23;20018;-89
2023/05/03 01:11:08;;;;;;;25.80;16.02;;;;;;;;;;10109415;23;20022;-89
2023/05/03 01:15:17;;;;;;;29.95;17.48;;;;;;;;;;10109275;23;20458;-89
2023/05/03 01:19:32;;;;;;;29.17;17.08;;;;;;;;;;10108559;23;20105;-89
2023/05/03 01:23:42;;;;;;;30.88;18.58;;;;;;;;;;10108410;23;20339;-89
2023/05/03 01:27:47;;;;;;;34.35;17.90;;;;;;;;;;10109019;23;20094;-88
2023/05/03 01:31:57;;;;;;;31.50;18.10;;;;;;;;;;10092473;23;20022;-89
2023/05/03 01:36:05;;;;;;;30.58;16.77;;;;;;;;;;10108459;23;20114;-89
2023/05/03 01:40:10;;;;;;;31.88;18.75;;;;;;;;;;10108008;23;20403;-89
2023/05/03 01:44:16;;;;;;;30.27;18.48;;;;;;;;;;10108759;23;20022;-89
2023/05/03 01:48:20;;;;;;;27.90;18.25;;;;;;;;;;10108375;23;20029;-89
2023/05/03 01:52:23;;;;;;;31.00;17.48;;;;;;;;;;10092502;23;20207;-89
2023/05/03 01:56:26;;;;;;;27.33;16.90;;;;;;;;;;10092509;23;20019;-88
2023/05/03 02:00:30;;;;;;;33.88;18.65;;;;;;;;;;10091554;23;20179;-89
2023/05/03 02:04:33;;;;;;;31.45;16.83;;;;;;;;;;10108861;23;20447;-88
2023/05/03 02:08:36;;;;;;;30.77;17.50;;;;;;;;;;10093111;23;20042;-89
2023/05/03 02:12:39;;;;;;;32.95;18.23;;;;;;;;;;10093101;23;20349;-90
2023/05/03 02:16:43;;;;;;;32.22;16.90;;;;;;;;;;10092770;23;20025;-88
2023/05/03 02:20:47;;;;;;;28.25;16.73;;;;;;;;;;10092396;23;20025;-88
2023/05/03 02:24:49;;;;;;;30.63;17.55;;;;;;;;;;10066847;23;20197;-89
2023/05/03 02:28:52;;;;;;;23.95;15.32;;;;;;;;;;10092153;23;20058;-88
2023/05/03 02:32:56;;;;;;;29.33;16.88;;;;;;;;;;10092175;23;20030;-89
2023/05/03 02:36:59;;;;;;;20.20;13.50;;;;;;;;;;10091967;23;20094;-89
2023/05/03 02:41:02;;;;;;;24.50;14.73;;;;;;;;;;10092229;23;20028;-88
2023/05/03 02:45:06;;;;;;;26.08;14.88;;;;;;;;;;10091663;23;20466;-89
2023/05/03 02:49:11;;;;;;;26.48;15.57;;;;;;;;;;10091819;23;20023;-88
2023/05/03 02:53:14;;;;;;;25.98;15.45;;;;;;;;;;10091950;23;20022;-89
2023/05/03 02:57:16;;;;;;;24.27;14.70;;;;;;;;;;10091708;23;20050;-88
2023/05/03 03:01:19;;;;;;;26.10;16.15;;;;;;;;;;10091666;23;20460;-88
2023/05/03 03:05:24;;;;;;;27.55;16.25;;;;;;;;;;10092040;23;20022;-88
2023/05/03 03:09:26;;;;;;;29.42;16.33;;;;;;;;;;10092014;23;20026;-89
2023/05/03 03:13:29;;;;;;;26.63;15.65;;;;;;;;;;10091755;23;20058;-89
2023/05/03 03:17:32;;;;;;;23.75;13.57;;;;;;;;;;10092188;23;20336;-89
2023/05/03 03:21:37;;;;;;;28.50;16.80;;;;;;;;;;10091746;23;20101;-88
2023/05/03 03:25:41;;;;;;;29.23;16.58;;;;;;;;;;10091368;23;20110;-88
2023/05/03 03:29:43;;;;;;;34.15;17.02;;;;;;;;;;10091764;23;20029;-88
2023/05/03 03:33:47;;;;;;;29.90;16.63;;;;;;;;;;10091537;23;20384;-88
2023/05/03 03:37:51;;;;;;;26.58;16.40;;;;;;;;;;10091652;23;20023;-88
2023/05/03 03:41:54;;;;;;;28.52;17.85;;;;;;;;;;10090848;23;20467;-88
2023/05/03 03:45:57;;;;;;;32.63;17.77;;;;;;;;;;10091846;23;20093;-89
2023/05/03 03:50:01;;;;;;;39.13;19.23;;;;;;;;;;10091706;23;20022;-87
2023/05/03 03:54:06;;;;;;;33.50;17.77;;;;;;;;;;10091463;23;20097;-89
2023/05/03 03:58:09;;;;;;;32.58;18.70;;;;;;;;;;10091004;23;20338;-89
2023/05/03 04:02:12;;;;;;;37.10;17.63;;;;;;;;;;10091088;23;20028;-88
2023/05/03 04:06:15;;;;;;;32.47;17.50;;;;;;;;;;10091373;23;20022;-89
2023/05/03 04:10:20;;;;;;;33.17;17.88;;;;;;;;;;10090774;23;20034;-88
2023/05/03 04:14:22;;;;;;;29.58;17.38;;;;;;;;;;10091254;23;20018;-89
2023/05/03 04:18:25;;;;;;;34.20;18.05;;;;;;;;;;10090983;23;20015;-88
2023/05/03 04:22:29;;;;;;;34.63;19.55;;;;;;;;;;10090217;23;20026;-88
2023/05/03 04:26:34;;;;;;;26.90;16.77;;;;;;;;;;10090727;23;20459;-88
2023/05/03 04:30:37;;;;;;;30.40;17.88;;;;;;;;;;10090684;23;20053;-88
2023/05/03 04:34:42;;;;;;;29.92;17.38;;;;;;;;;;10090877;23;20402;-89
2023/05/03 04:38:45;;;;;;;32.20;17.70;;;;;;;;;;10090141;23;20466;-88
2023/05/03 04:42:49;;;;;;;32.50;19.35;;;;;;;;;;10089203;23;20098;-88
2023/05/03 04:46:52;;;;;;;28.63;16.88;;;;;;;;;;10089154;23;20030;-88
2023/05/03 04:50:55;;;;;;;32.83;17.70;;;;;;;;;;10090043;23;20144;-88
2023/05/03 04:54:58;;;;;;;28.55;17.13;;;;;;;;;;10090028;23;20032;-89
2023/05/03 04:59:04;;;;;;;26.08;15.85;;;;;;;;;;10064145;23;20050;-88
2023/05/03 05:03:07;;;;;;;28.65;16.08;;;;;;;;;;10092956;23;20030;-89
2023/05/03 05:07:10;;;;;;;28.42;15.73;;;;;;;;;;10090382;23;20019;-89
2023/05/03 05:11:14;;;;;;;24.40;15.20;;;;;;;;;;10090935;23;20018;-89
2023/05/03 05:15:19;;;;;;;21.40;14.48;;;;;;;;;;10089909;23;20022;-89
2023/05/03 05:19:25;;;;;;;23.67;14.77;;;;;;;;;;10089931;23;20020;-89
2023/05/03 05:23:30;;;;;;;23.45;13.52;;;;;;;;;;10106460;23;20023;-89
2023/05/03 05:27:34;;;;;;;19.85;13.07;;;;;;;;;;10089723;23;20026;-89
2023/05/03 05:31:38;;;;;;;19.35;12.85;;;;;;;;;;10064021;23;20026;-86
2023/05/03 05:35:41;;;;;;;22.08;13.02;;;;;;;;;;10090820;23;20093;-88
2023/05/03 05:39:45;;;;;;;26.95;16.40;;;;;;;;;;10093389;23;20089;-92
2023/05/03 05:43:48;;;;;;;26.98;15.75;;;;;;;;;;10094932;23;20101;-92
2023/05/03 05:47:52;;;;;;;27.13;16.67;;;;;;;;;;10094983;23;20126;-92
2023/05/03 05:51:56;;;;;;;24.33;13.75;;;;;;;;;;10094708;23;20022;-92
2023/05/03 05:55:59;;;;;;;17.80;11.60;;;;;;;;;;10094985;23;20026;-92
2023/05/03 06:00:07;;;;;;;17.02;9.93;;;;;;;;;;10094407;23;20105;-92
2023/05/03 06:04:19;;;;;;;18.40;10.13;;;;;;;;;;10094401;23;20018;-92
2023/05/03 06:08:22;;;;;;;;;;;;;;;;;;10093333;23;20029;-90
2023/05/03 06:12:25;;;;;;;11.60;7.88;;;;;;;;;;10093943;23;20355;-92
2023/05/03 06:16:29;;;;;;;16.20;8.50;;;;;;;;;;10094596;23;20097;-92
2023/05/03 06:20:51;;;;;;;13.32;8.13;;;;;;;;;;10090562;23;20101;-90
2023/05/03 06:25:09;;;;;;;11.75;7.63;;;;;;;;;;10088646;23;20463;-92
2023/05/03 06:29:12;;;;;;;12.70;8.13;;;;;;;;;;10093263;23;20028;-86
2023/05/03 06:33:15;;;;;;;12.25;8.18;;;;;;;;;;10093381;23;20083;-90
2023/05/03 06:37:34;;;;;;;9.55;6.78;;;;;;;;;;10066071;23;20681;-89
2023/05/03 06:41:38;;;;;;;9.95;6.97;;;;;;;;;;10107458;23;20142;-87
2023/05/03 06:45:43;;;;;;;14.20;7.82;;;;;;;;;;10092507;23;20023;-88
2023/05/03 06:49:48;;;;;;;11.27;7.50;;;;;;;;;;10092220;23;20018;-88
2023/05/03 06:53:52;;;;;;;13.30;6.45;;;;;;;;;;10066942;23;20440;-88
2023/05/03 06:57:55;;;;;;;9.45;6.70;;;;;;;;;;10091340;23;20401;-89
2023/05/03 07:02:01;;;;;;;11.57;7.07;;;;;;;;;;10092941;23;20485;-89
2023/05/03 07:06:04;;;;;;;9.40;6.60;;;;;;;;;;10068257;23;20105;-89
2023/05/03 07:10:12;;;;;;;9.13;5.80;;;;;;;;;;10094154;23;20038;-89
2023/05/03 07:14:15;;;;;;;9.48;6.18;;;;;;;;;;10107764;23;20026;-89
2023/05/03 07:18:21;;;;;;;9.85;5.75;;;;;;;;;;10086280;23;20022;-89
2023/05/03 07:22:26;;;;;;;9.95;5.70;;;;;;;;;;10061014;23;20654;-88
2023/05/03 07:26:31;;;;;;;10.23;5.95;;;;;;;;;;10085855;23;20379;-88
2023/05/03 07:30:34;;;;;;;11.55;5.90;;;;;;;;;;10085243;23;20026;-88
2023/05/03 07:34:39;;;;;;;10.98;6.00;;;;;;;;;;10086143;23;20026;-88
2023/05/03 07:38:45;;;;;;;9.45;5.82;;;;;;;;;;10084122;23;20033;-89
2023/05/03 07:42:50;;;;;;;8.18;5.57;;;;;;;;;;10101664;23;20057;-89
2023/05/03 07:47:01;;;;;;;9.32;5.15;;;;;;;;;;10085400;23;20082;-90
2023/05/03 07:51:20;;;;;;;6.97;4.50;;;;;;;;;;10100139;23;20038;-88
2023/05/03 07:55:27;;;;;;;8.40;4.50;;;;;;;;;;10101001;23;20053;-89
2023/05/03 07:59:37;;;;;;;8.02;4.18;;;;;;;;;;10059296;23;20081;-91
2023/05/03 08:04:10;;;;;;;6.57;3.92;;;;;;;;;;10079431;23;20340;-90
2023/05/03 08:08:14;;;;;;;8.50;4.13;;;;;;;;;;10085346;23;20022;-90
2023/05/03 08:12:18;;;;;;;8.32;4.53;;;;;;;;;;10083352;23;20057;-90
2023/05/03 08:16:28;;;;;;;7.00;3.78;;;;;;;;;;10085157;23;20026;-89
2023/05/03 08:20:35;;;;;;;10.10;4.60;;;;;;;;;;10083970;23;20153;-90
2023/05/03 08:24:42;;;;;;;9.15;3.88;;;;;;;;;;10084975;23;20118;-88
2023/05/03 08:28:45;;;;;;;8.35;3.97;;;;;;;;;;10098226;23;20018;-89
2023/05/03 08:32:55;;;;;;;7.30;3.65;;;;;;;;;;10082795;23;20022;-88
2023/05/03 08:37:04;;;;;;;;;;;;;;;;;;10085287;23;20025;-90
2023/05/03 08:41:24;;;;;;;6.75;3.47;;;;;;;;;;10085106;23;20425;-90
2023/05/03 08:45:52;;;;;;;5.28;3.40;;;;;;;;;;10082149;23;20026;-89
2023/05/03 08:50:08;;;;;;;8.82;3.78;;;;;;;;;;10084551;23;20033;-90
2023/05/03 08:54:20;;;;;;;6.47;2.50;;;;;;;;;;10101192;23;20412;-90
2023/05/03 08:58:27;;;;;;;5.38;2.78;;;;;;;;;;10084351;23;20096;-88
2023/05/03 09:02:33;;;;;;;7.05;2.92;;;;;;;;;;10083629;23;20026;-91
2023/05/03 09:06:38;;;;;;;6.95;2.72;;;;;;;;;;10099864;23;20050;-89
2023/05/03 09:10:42;;;;;;;14.88;4.05;;;;;;;;;;10087006;23;20029;-88
2023/05/03 09:14:47;;;;;;;8.45;2.90;;;;;;;;;;10087312;23;20045;-88
2023/05/03 09:19:00;;;;;;;5.68;2.70;;;;;;;;;;10088079;23;20018;-87
2023/05/03 09:23:04;;;;;;;6.30;3.00;;;;;;;;;;10087662;23;20350;-88
2023/05/03 09:27:20;;;;;;;8.63;2.80;;;;;;;;;;10061487;23;20056;-88
2023/05/03 09:31:23;;;;;;;7.80;2.95;;;;;;;;;;10103032;23;20049;-88
2023/05/03 09:35:27;;;;;;;6.95;3.00;;;;;;;;;;10087462;23;20036;-88
2023/05/03 09:39:32;;;;;;;6.80;2.40;;;;;;;;;;10089112;23;20057;-89
2023/05/03 09:43:36;;;;;;;6.00;2.72;;;;;;;;;;10087052;23;20022;-88
2023/05/03 09:47:52;;;;;;;7.25;2.92;;;;;;;;;;10088610;23;20340;-86
2023/05/03 09:51:56;;;;;;;34.22;14.45;;;;;;;;;;10101709;23;20026;-88
2023/05/03 09:56:03;;;;;;;7.93;3.28;;;;;;;;;;10061590;23;20042;-88
2023/05/03 10:00:09;;;;;;;10.18;3.35;;;;;;;;;;10101200;23;20026;-88
2023/05/03 10:04:15;;;;;;;10.30;4.00;;;;;;;;;;10102274;23;20073;-86
2023/05/03 10:08:24;;;;;;;5.32;2.80;;;;;;;;;;10102612;23;20050;-85
2023/05/03 10:12:29;;;;;;;6.95;3.35;;;;;;;;;;10102728;23;20101;-86
2023/05/03 10:16:37;;;;;;;5.88;3.30;;;;;;;;;;10084599;23;20023;-86
2023/05/03 10:20:47;;;;;;;8.82;3.22;;;;;;;;;;10101619;23;20050;-86
2023/05/03 10:25:10;;;;;;;6.55;3.00;;;;;;;;;;10102807;23;20022;-86
2023/05/03 10:29:53;;;;;;;5.68;3.50;;;;;;;;;;10086181;23;20026;-87
2023/05/03 10:33:58;;;;;;;8.90;4.20;;;;;;;;;;10080009;23;20030;-88
2023/05/03 10:38:15;;;;;;;7.65;3.42;;;;;;;;;;10085555;23;20022;-87
2023/05/03 10:42:22;;;;;;;6.70;3.92;;;;;;;;;;10101696;23;20022;-87
2023/05/03 10:46:33;;;;;;;6.70;3.47;;;;;;;;;;10102337;23;20073;-86
2023/05/03 10:50:38;;;;;;;7.00;3.90;;;;;;;;;;10102204;23;20158;-86
2023/05/03 10:54:41;;;;;;;7.60;4.00;;;;;;;;;;10086034;23;20029;-86
2023/05/03 10:58:46;;;;;;;6.90;3.75;;;;;;;;;;10085886;23;20022;-87
2023/05/03 11:03:31;;;;;;;6.85;3.67;;;;;;;;;;10084542;23;20034;-86
2023/05/03 11:07:36;;;;;;;6.47;3.70;;;;;;;;;;10102355;23;20022;-87
2023/05/03 11:11:41;;;;;;;10.40;3.10;;;;;;;;;;10084190;23;20482;-87
2023/05/03 11:15:44;;;;;;;8.57;3.30;;;;;;;;;;10085482;23;20101;-87
2023/05/03 11:19:48;;;;;;;8.60;3.70;;;;;;;;;;10084879;23;20111;-88
2023/05/03 11:23:54;;;;;;;8.68;3.78;;;;;;;;;;10088947;23;20090;-87
2023/05/03 11:27:58;;;;;;;10.65;3.42;;;;;;;;;;10101209;23;20058;-87
2023/05/03 11:32:00;;;;;;;6.22;3.17;;;;;;;;;;10058434;23;20019;-86
2023/05/03 11:36:05;;;;;;;6.95;3.03;;;;;;;;;;10085519;23;20391;-86
2023/05/03 11:40:15;;;;;;;7.82;3.08;;;;;;;;;;10083898;23;20511;-86
2023/05/03 11:44:19;;;;;;;5.20;2.63;;;;;;;;;;10100668;23;20332;-86
2023/05/03 11:48:24;;;;;;;7.90;3.13;;;;;;;;;;10083687;23;20033;-86
2023/05/03 11:52:28;;;;;;;6.18;2.55;;;;;;;;;;10100419;23;20027;-86
2023/05/03 11:56:38;;;;;;;4.10;2.38;;;;;;;;;;10084897;23;20128;-86
2023/05/03 12:00:45;;;;;;;7.13;2.70;;;;;;;;;;10089136;23;20109;-90
2023/05/03 12:04:48;;;;;;;6.70;2.65;;;;;;;;;;10104169;23;20022;-90
2023/05/03 12:08:54;;;;;;;8.40;2.90;;;;;;;;;;10088872;23;20022;-89
2023/05/03 12:13:00;;;;;;;5.95;2.63;;;;;;;;;;10066393;23;20026;-90
2023/05/03 12:17:03;;;;;;;4.65;2.55;;;;;;;;;;10064297;23;20026;-89
2023/05/03 12:21:07;;;;;;;4.60;3.00;;;;;;;;;;10091093;23;20025;-87
2023/05/03 12:25:10;;;;;;;7.38;2.92;;;;;;;;;;10090994;23;20101;-88
2023/05/03 12:29:15;;;;;;;5.00;2.80;;;;;;;;;;10090947;23;20077;-89
2023/05/03 12:33:20;;;;;;;7.03;3.05;;;;;;;;;;10099980;23;20029;-87
2023/05/03 12:37:23;;;;;;;4.75;2.83;;;;;;;;;;10081353;23;20513;-86
2023/05/03 12:41:28;;;;;;;5.20;2.60;;;;;;;;;;10085225;23;20552;-86
2023/05/03 12:45:33;;;;;;;7.10;2.90;;;;;;;;;;10089022;23;20030;-88
2023/05/03 12:49:38;;;;;;;6.70;2.90;;;;;;;;;;10088722;23;20021;-89
2023/05/03 12:53:41;;;;;;;7.25;3.00;;;;;;;;;;10103124;23;20698;-87
2023/05/03 12:57:46;;;;;;;5.35;3.00;;;;;;;;;;10087750;23;20042;-86
2023/05/03 13:01:50;;;;;;;4.97;2.75;;;;;;;;;;10063456;23;20026;-88
2023/05/03 13:05:53;;;;;;;4.80;2.40;;;;;;;;;;10088501;23;20026;-88
2023/05/03 13:09:57;;;;;;;5.35;2.90;;;;;;;;;;10086875;23;20029;-89
2023/05/03 13:14:01;;;;;;;7.20;2.70;;;;;;;;;;10086730;23;20046;-88
2023/05/03 13:18:06;;;;;;;8.02;2.60;;;;;;;;;;10084413;23;20077;-89
2023/05/03 13:22:10;;;;;;;4.50;2.50;;;;;;;;;;10102091;23;20022;-89
2023/05/03 13:26:13;;;;;;;6.65;2.20;;;;;;;;;;10084864;23;20053;-89
2023/05/03 13:30:19;;;;;;;3.97;2.42;;;;;;;;;;10085041;23;20387;-90
2023/05/03 13:34:28;;;;;;;4.82;2.42;;;;;;;;;;10086234;23;20359;-88
2023/05/03 13:38:32;;;;;;;5.40;2.40;;;;;;;;;;10100524;23;20060;-87
2023/05/03 13:42:37;;;;;;;5.28;2.90;;;;;;;;;;10084615;23;20368;-86
2023/05/03 13:46:42;;;;;;;3.70;2.25;;;;;;;;;;10083563;23;20022;-90
2023/05/03 13:50:48;;;;;;;3.83;2.50;;;;;;;;;;10083809;23;20491;-90
2023/05/03 13:54:51;;;;;;;5.18;2.08;;;;;;;;;;10101328;23;20030;-87
2023/05/03 13:58:55;;;;;;;5.72;2.60;;;;;;;;;;10087393;23;20203;-89
2023/05/03 14:02:58;;;;;;;5.75;2.28;;;;;;;;;;10086842;23;20058;-87
2023/05/03 14:07:03;;;;;;;4.80;2.67;;;;;;;;;;10085716;23;20026;-88
2023/05/03 14:11:13;;;;;;;4.70;2.28;;;;;;;;;;10087660;23;20029;-87
2023/05/03 14:15:18;;;;;;;4.97;2.13;;;;;;;;;;10089276;23;20108;-88
2023/05/03 14:19:21;;;;;;;4.72;2.50;;;;;;;;;;10088219;23;20444;-90
2023/05/03 14:23:31;;;;;;;5.32;2.47;;;;;;;;;;10085809;23;20022;-87
2023/05/03 14:27:34;;;;;;;6.97;3.80;;;;;;;;;;10103071;23;20053;-88
2023/05/03 14:31:38;;;;;;;7.13;2.30;;;;;;;;;;10087092;23;20022;-87
2023/05/03 14:35:41;;;;;;;3.13;1.90;;;;;;;;;;10086118;23;20160;-88
2023/05/03 14:39:46;;;;;;;6.05;3.08;;;;;;;;;;10086777;23;20336;-89
2023/05/03 14:43:49;;;;;;;4.38;2.30;;;;;;;;;;10086244;23;20026;-90
2023/05/03 14:47:55;;;;;;;4.85;2.50;;;;;;;;;;10087118;23;20173;-87
2023/05/03 14:51:59;;;;;;;7.70;2.20;;;;;;;;;;10103253;23;20046;-87
2023/05/03 14:56:04;;;;;;;6.43;2.00;;;;;;;;;;10085813;23;20023;-87
2023/05/03 15:00:13;;;;;;;5.78;2.60;;;;;;;;;;10086799;23;20042;-86
2023/05/03 15:04:16;;;;;;;5.38;2.20;;;;;;;;;;10086844;23;20022;-88
2023/05/03 15:08:21;;;;;;;4.43;2.10;;;;;;;;;;10088162;23;20101;-91
2023/05/03 15:12:26;;;;;;;6.03;2.00;;;;;;;;;;10088988;23;20078;-87
2023/05/03 15:16:29;;;;;;;5.00;2.60;;;;;;;;;;10086414;23;20073;-90
2023/05/03 15:20:32;;;;;;;4.20;2.35;;;;;;;;;;10084230;23;20029;-89
2023/05/03 15:24:36;;;;;;;5.72;3.65;;;;;;;;;;10087609;23;20322;-89
2023/05/03 15:28:40;;;;;;;4.43;2.50;;;;;;;;;;10088582;23;20062;-86
2023/05/03 15:32:43;;;;;;;3.22;1.88;;;;;;;;;;10086322;23;20057;-87
2023/05/03 15:36:49;;;;;;;13.48;4.03;;;;;;;;;;10086771;23;20109;-87
2023/05/03 15:41:08;;;;;;;7.75;3.10;;;;;;;;;;10080894;23;20030;-87
2023/05/03 15:45:14;;;;;;;14.23;5.88;;;;;;;;;;10085193;23;20214;-89
2023/05/03 15:49:17;;;;;;;22.58;9.07;;;;;;;;;;10082177;23;20034;-88
2023/05/03 15:53:21;;;;;;;9.15;4.25;;;;;;;;;;10084596;23;20074;-88
2023/05/03 15:57:25;;;;;;;6.72;3.90;;;;;;;;;;10085488;23;20022;-89
2023/05/03 16:01:30;;;;;;;7.13;3.60;;;;;;;;;;10085804;23;20053;-88
2023/05/03 16:05:35;;;;;;;8.13;4.10;;;;;;;;;;10084215;23;20088;-88
2023/05/03 16:09:38;;;;;;;8.70;3.08;;;;;;;;;;10058313;23;20034;-89
2023/05/03 16:13:41;;;;;;;18.20;7.50;;;;;;;;;;10084329;23;20055;-88
2023/05/03 16:17:48;;;;;;;13.65;6.82;;;;;;;;;;10085153;23;20023;-88
2023/05/03 16:21:52;;;;;;;5.53;4.05;;;;;;;;;;10101317;23;20447;-88
2023/05/03 16:25:55;;;;;;;7.78;5.57;;;;;;;;;;10084674;23;20049;-87
2023/05/03 16:30:00;;;;;;;5.32;2.88;;;;;;;;;;10084382;23;20102;-87
2023/05/03 16:34:05;;;;;;;8.30;3.60;;;;;;;;;;10085465;23;20018;-86
2023/05/03 16:38:08;;;;;;;6.50;2.70;;;;;;;;;;10083928;23;20416;-87
2023/05/03 16:42:12;;;;;;;9.25;4.95;;;;;;;;;;10084130;23;20469;-87
2023/05/03 16:46:15;;;;;;;6.07;3.65;;;;;;;;;;10059342;23;20069;-88
2023/05/03 16:50:25;;;;;;;9.77;5.55;;;;;;;;;;10085148;23;20526;-89
2023/05/03 16:54:28;;;;;;;7.20;3.90;;;;;;;;;;10101109;23;20026;-87
2023/05/03 16:58:36;;;;;;;6.25;3.60;;;;;;;;;;10083525;23;20124;-88
2023/05/03 17:02:40;;;;;;;6.20;4.47;;;;;;;;;;10090521;23;20110;-87
2023/05/03 17:06:46;;;;;;;5.85;3.70;;;;;;;;;;10084464;23;20022;-88
2023/05/03 17:10:49;;;;;;;7.75;3.78;;;;;;;;;;10104209;23;20030;-88
2023/05/03 17:14:52;;;;;;;5.65;3.28;;;;;;;;;;10087728;23;20476;-87
2023/05/03 17:18:58;;;;;;;5.05;2.90;;;;;;;;;;10084066;23;20030;-88
2023/05/03 17:23:02;;;;;;;4.63;2.45;;;;;;;;;;10100637;23;20097;-87
2023/05/03 17:27:08;;;;;;;5.60;2.55;;;;;;;;;;10085184;23;20155;-86
2023/05/03 17:31:11;;;;;;;5.50;2.45;;;;;;;;;;10103616;23;20097;-87
2023/05/03 17:35:15;;;;;;;5.93;2.90;;;;;;;;;;10087785;23;20023;-86
2023/05/03 17:39:20;;;;;;;5.97;3.17;;;;;;;;;;10087748;23;20033;-87
2023/05/03 17:43:23;;;;;;;5.28;2.88;;;;;;;;;;10085125;23;20026;-85
2023/05/03 17:47:26;;;;;;;8.40;3.35;;;;;;;;;;10083392;23;20022;-87
2023/05/03 17:51:32;;;;;;;5.72;2.90;;;;;;;;;;10085134;23;20105;-87
2023/05/03 17:55:37;;;;;;;9.45;3.67;;;;;;;;;;10103142;23;20426;-87
2023/05/03 17:59:43;;;;;;;9.45;4.30;;;;;;;;;;10103149;23;20042;-87
2023/05/03 18:03:46;;;;;;;8.90;4.68;;;;;;;;;;10085074;23;20113;-86
2023/05/03 18:07:52;;;;;;;9.40;5.70;;;;;;;;;;10086491;23;20393;-85
2023/05/03 18:12:02;;;;;;;9.93;5.55;;;;;;;;;;10085153;23;20025;-85
2023/05/03 18:16:07;;;;;;;11.38;6.47;;;;;;;;;;10102815;23;20022;-87
2023/05/03 18:20:12;;;;;;;13.48;6.75;;;;;;;;;;10100540;23;20038;-87
2023/05/03 18:24:15;;;;;;;15.38;8.63;;;;;;;;;;10088993;23;20097;-90
2023/05/03 18:28:21;;;;;;;14.38;8.50;;;;;;;;;;10064381;23;20029;-88
2023/05/03 18:32:25;;;;;;;16.65;8.35;;;;;;;;;;10107197;23;20029;-89
2023/05/03 18:36:30;;;;;;;89.80;38.55;;;;;;;;;;10090900;23;20451;-87
2023/05/03 18:40:34;;;;;;;23.77;13.00;;;;;;;;;;10090622;23;20022;-87
2023/05/03 18:44:39;;;;;;;26.50;13.82;;;;;;;;;;10091324;23;20022;-90
2023/05/03 18:48:44;;;;;;;19.67;9.25;;;;;;;;;;10108925;23;20033;-86
2023/05/03 18:52:51;;;;;;;14.60;8.50;;;;;;;;;;10106789;23;20041;-88
2023/05/03 18:56:57;;;;;;;13.25;7.18;;;;;;;;;;10107511;23;20026;-86
2023/05/03 19:01:08;;;;;;;17.13;7.60;;;;;;;;;;10104891;23;20026;-86
2023/05/03 19:05:15;;;;;;;12.13;6.38;;;;;;;;;;10091260;23;20068;-85
2023/05/03 19:09:21;;;;;;;10.45;5.68;;;;;;;;;;10108416;23;20376;-87
2023/05/03 19:13:43;;;;;;;11.02;5.68;;;;;;;;;;10092101;23;20526;-85
2023/05/03 19:17:55;;;;;;;8.65;5.00;;;;;;;;;;10108956;23;20038;-87
2023/05/03 19:22:04;;;;;;;9.23;5.43;;;;;;;;;;10107668;23;20022;-89
2023/05/03 19:26:15;;;;;;;10.27;5.45;;;;;;;;;;10083257;23;20076;-85
2023/05/03 19:30:21;;;;;;;9.27;5.50;;;;;;;;;;10108317;23;20029;-88
2023/05/03 19:34:26;;;;;;;9.98;5.85;;;;;;;;;;10092891;23;20026;-86
2023/05/03 19:38:53;;;;;;;8.98;5.28;;;;;;;;;;10091976;23;20023;-87
2023/05/03 19:43:01;;;;;;;13.55;7.07;;;;;;;;;;10091924;23;20049;-85
2023/05/03 19:47:06;;;;;;;13.60;6.47;;;;;;;;;;10108982;23;20033;-86
2023/05/03 19:51:16;;;;;;;25.25;13.07;;;;;;;;;;10091063;23;20025;-87
2023/05/03 19:55:21;;;;;;;14.03;7.43;;;;;;;;;;10082965;23;20029;-88
2023/05/03 19:59:24;;;;;;;14.48;6.75;;;;;;;;;;10092317;23;20111;-89
2023/05/03 20:03:31;;;;;;;19.70;9.52;;;;;;;;;;10091091;23;20147;-89
2023/05/03 20:07:40;;;;;;;19.60;10.68;;;;;;;;;;10106526;23;20023;-88
2023/05/03 20:12:01;;;;;;;11.65;6.05;;;;;;;;;;10107135;23;20022;-89
2023/05/03 20:16:06;;;;;;;15.48;5.68;;;;;;;;;;10110960;23;20018;-90
2023/05/03 20:20:11;;;;;;;11.15;5.30;;;;;;;;;;10092116;23;20018;-90
2023/05/03 20:24:19;;;;;;;10.45;5.20;;;;;;;;;;10092528;23;20022;-85
2023/05/03 20:28:24;;;;;;;16.73;9.20;;;;;;;;;;10107683;23;20223;-88
2023/05/03 20:32:27;;;;;;;19.10;10.88;;;;;;;;;;10091016;23;20018;-88
2023/05/03 20:36:32;;;;;;;12.68;5.80;;;;;;;;;;10091470;23;20344;-87
2023/05/03 20:40:36;;;;;;;11.70;6.00;;;;;;;;;;10093250;23;20019;-87
2023/05/03 20:44:39;;;;;;;12.88;6.63;;;;;;;;;;10091914;23;20022;-88
2023/05/03 20:48:46;;;;;;;14.27;6.47;;;;;;;;;;10091014;23;20026;-87
2023/05/03 20:52:49;;;;;;;11.60;6.63;;;;;;;;;;10107997;23;20390;-88
2023/05/03 20:56:54;;;;;;;11.90;6.95;;;;;;;;;;10091878;23;20023;-89
2023/05/03 21:00:59;;;;;;;11.73;6.15;;;;;;;;;;10104236;23;20023;-86
2023/05/03 21:05:02;;;;;;;16.58;10.88;;;;;;;;;;10092669;23;20104;-88
2023/05/03 21:09:05;;;;;;;11.50;6.60;;;;;;;;;;10094687;23;20094;-90
2023/05/03 21:13:10;;;;;;;12.88;6.57;;;;;;;;;;10095125;23;20045;-87
2023/05/03 21:17:13;;;;;;;12.07;5.72;;;;;;;;;;10094487;23;20453;-85
2023/05/03 21:21:16;;;;;;;10.93;6.35;;;;;;;;;;10094567;23;20513;-88
2023/05/03 21:25:19;;;;;;;16.35;7.60;;;;;;;;;;10094775;23;20030;-87
2023/05/03 21:29:24;;;;;;;13.02;6.85;;;;;;;;;;10068413;23;20034;-88
2023/05/03 21:33:27;;;;;;;13.10;6.65;;;;;;;;;;10094877;23;20022;-88
2023/05/03 21:37:30;;;;;;;11.57;6.07;;;;;;;;;;10094436;23;20014;-90
2023/05/03 21:41:33;;;;;;;12.15;5.82;;;;;;;;;;10094308;23;20038;-89
2023/05/03 21:45:37;;;;;;;10.20;5.32;;;;;;;;;;10068872;23;20018;-85
2023/05/03 21:49:40;;;;;;;10.52;5.63;;;;;;;;;;10094886;23;20504;-89
2023/05/03 21:53:43;;;;;;;9.95;5.53;;;;;;;;;;10095950;23;20018;-87
2023/05/03 21:57:46;;;;;;;11.95;6.45;;;;;;;;;;10094469;23;20093;-89
2023/05/03 22:01:50;;;;;;;10.32;5.95;;;;;;;;;;10094856;23;20042;-90
2023/05/03 22:05:53;;;;;;;12.55;5.30;;;;;;;;;;10096458;23;20372;-86
2023/05/03 22:09:56;;;;;;;11.02;5.53;;;;;;;;;;10094641;23;20081;-87
2023/05/03 22:13:59;;;;;;;9.23;5.47;;;;;;;;;;10094609;23;20046;-88
2023/05/03 22:18:04;;;;;;;10.00;5.63;;;;;;;;;;10093968;23;20019;-85
2023/05/03 22:22:06;;;;;;;8.98;4.47;;;;;;;;;;10094016;23;20069;-87
2023/05/03 22:26:10;;;;;;;6.15;3.97;;;;;;;;;;10093385;23;20324;-86
2023/05/03 22:30:13;;;;;;;9.05;5.05;;;;;;;;;;10093249;23;20056;-88
2023/05/03 22:34:18;;;;;;;10.07;4.82;;;;;;;;;;10093098;23;20083;-87
2023/05/03 22:38:21;;;;;;;8.60;5.03;;;;;;;;;;10092819;23;20022;-86
2023/05/03 22:42:23;;;;;;;10.35;5.18;;;;;;;;;;10092897;23;20022;-87
2023/05/03 22:46:27;;;;;;;7.40;4.53;;;;;;;;;;10092987;23;20452;-89
2023/05/03 22:50:32;;;;;;;9.55;4.95;;;;;;;;;;10093096;23;20099;-88
2023/05/03 22:54:35;;;;;;;8.27;4.65;;;;;;;;;;10092524;23;20022;-89
2023/05/03 22:58:38;;;;;;;9.05;5.15;;;;;;;;;;10092589;23;20022;-87
2023/05/03 23:02:41;;;;;;;9.93;5.20;;;;;;;;;;10091725;23;20066;-88
2023/05/03 23:06:45;;;;;;;12.68;5.30;;;;;;;;;;10092531;23;20097;-88
2023/05/03 23:10:48;;;;;;;6.57;4.63;;;;;;;;;;10092522;23;20026;-89
2023/05/03 23:14:51;;;;;;;8.77;5.18;;;;;;;;;;10092407;23;20061;-88
2023/05/03 23:18:55;;;;;;;9.63;4.72;;;;;;;;;;10092093;23;20098;-87
2023/05/03 23:22:59;;;;;;;7.90;4.55;;;;;;;;;;10092521;23;20022;-91
2023/05/03 23:27:02;;;;;;;11.10;5.38;;;;;;;;;;10090528;23;20038;-91
2023/05/03 23:31:05;;;;;;;10.43;5.60;;;;;;;;;;10092554;23;20470;-88
2023/05/03 23:35:09;;;;;;;8.02;4.97;;;;;;;;;;10091972;23;20452;-88
2023/05/03 23:39:13;;;;;;;11.82;5.38;;;;;;;;;;10091682;23;20093;-90
2023/05/03 23:43:16;;;;;;;11.32;5.60;;;;;;;;;;10091495;23;20026;-89
2023/05/03 23:47:19;;;;;;;10.25;5.30;;;;;;;;;;10090519;23;20498;-88
2023/05/03 23:51:22;;;;;;;8.25;4.88;;;;;;;;;;10091691;23;20542;-88
2023/05/03 23:55:26;;;;;;;9.23;6.10;;;;;;;;;;10091501;23;20459;-89